Dixon, Illinois
Current Conditions -  °F | °C
As of 4:55 PM on Monday 24 Nov 2014 (Local Time) from KRPJ Reporting Station
Light Snow Light Snow  
Wind Chill:   Ceiling: 1100
Heat Index: 25°   Visibility: 2.5mi
Dew Point: 22°   Wind: 28mph
Humidity: 89%   Direction: 260°W
Pressure: 29.63"   Gusts: 36mph
Location:  41.85°N, 89.48°W
Report Text: KRPJ 242255Z AUTO 26024G31KT 2 1/2SM -SN OVC011 M04/M05 A2963 RMK AO2 T10381053
Loading
Personal Weather Stations






























Interactive Weather Map New forecast layout! Learn more

10-Day Weather Forecast

Advertisements
Track Severe Weather on mobile